createdAt,value
2018-07-16T00:03:13.830Z,99.90
2018-07-16T00:07:58.295Z,99.90
2018-07-16T00:12:42.709Z,99.90
2018-07-16T00:17:27.115Z,99.90
2018-07-16T00:22:11.713Z,99.90
2018-07-16T00:26:56.486Z,99.90
2018-07-16T00:31:40.898Z,99.90
2018-07-16T00:36:25.170Z,99.90
2018-07-16T00:41:09.581Z,99.90
2018-07-16T00:45:53.920Z,99.90
2018-07-16T00:50:38.327Z,99.90
2018-07-16T00:55:22.642Z,99.90
2018-07-16T01:00:07.039Z,99.90
2018-07-16T01:04:51.421Z,99.90
2018-07-16T01:09:35.825Z,99.90
2018-07-16T01:14:20.450Z,99.90
2018-07-16T01:19:04.788Z,99.90
2018-07-16T01:23:49.179Z,99.90
2018-07-16T01:28:33.503Z,99.90
2018-07-16T01:33:19.803Z,99.90
2018-07-16T01:38:04.176Z,99.90
2018-07-16T01:42:48.522Z,99.90
2018-07-16T01:47:32.854Z,99.90
2018-07-16T01:52:17.173Z,99.90
2018-07-16T01:57:01.565Z,99.90
2018-07-16T02:01:46.148Z,99.90
2018-07-16T02:06:30.513Z,99.90
2018-07-16T02:11:14.914Z,99.90
2018-07-16T02:15:59.903Z,99.90
2018-07-16T02:20:44.962Z,99.90
2018-07-16T02:25:29.494Z,99.90
2018-07-16T02:30:13.902Z,99.90
2018-07-16T02:34:58.344Z,99.90
2018-07-16T02:39:42.834Z,99.90
2018-07-16T02:44:27.296Z,99.90
2018-07-16T02:49:11.598Z,99.90
2018-07-16T02:53:55.962Z,99.90
2018-07-16T02:58:40.293Z,99.90
2018-07-16T03:03:24.655Z,99.90
2018-07-16T03:08:09.013Z,99.90
2018-07-16T03:12:53.416Z,99.90
2018-07-16T03:17:37.751Z,99.90
2018-07-16T03:22:22.091Z,99.90
2018-07-16T03:27:06.420Z,99.90
2018-07-16T03:31:50.788Z,99.90
2018-07-16T03:36:35.199Z,99.90
2018-07-16T03:41:19.639Z,99.90
2018-07-16T03:46:03.976Z,99.90
2018-07-16T03:50:48.452Z,99.90
2018-07-16T03:55:33.035Z,99.90
2018-07-16T04:00:17.645Z,99.90
2018-07-16T04:05:01.938Z,99.90
2018-07-16T04:09:46.301Z,99.90
2018-07-16T04:14:30.719Z,99.90
2018-07-16T04:19:15.066Z,99.90
2018-07-16T04:23:59.450Z,99.90
2018-07-16T04:28:43.779Z,99.90
2018-07-16T04:33:28.136Z,99.90
2018-07-16T04:38:12.535Z,99.90
2018-07-16T04:42:56.983Z,99.90
2018-07-16T04:47:41.357Z,99.90
2018-07-16T04:52:25.742Z,99.90
2018-07-16T04:57:11.205Z,99.90
2018-07-16T05:01:55.522Z,99.90
2018-07-16T05:06:39.909Z,99.90
2018-07-16T05:11:24.246Z,99.90
2018-07-16T05:16:08.760Z,99.90
2018-07-16T05:20:53.385Z,99.90
2018-07-16T05:25:37.758Z,99.90
2018-07-16T05:30:22.150Z,99.90
2018-07-16T05:35:06.489Z,99.90
2018-07-16T05:39:51.057Z,99.90
2018-07-16T05:44:35.461Z,99.90
2018-07-16T05:49:20.065Z,99.90
2018-07-16T05:54:04.502Z,99.90
2018-07-16T05:58:49.035Z,99.90
2018-07-16T06:03:34.010Z,99.90
2018-07-16T06:08:18.733Z,99.90
2018-07-16T06:13:03.093Z,99.90
2018-07-16T06:17:47.579Z,99.90
2018-07-16T06:22:32.238Z,99.90
2018-07-16T06:27:16.670Z,99.90
2018-07-16T06:32:01.088Z,99.90
2018-07-16T06:36:45.682Z,99.90
2018-07-16T06:41:30.354Z,99.90
2018-07-16T06:46:14.354Z,99.90
2018-07-16T06:50:58.707Z,99.90
2018-07-16T06:55:43.184Z,99.90
2018-07-16T07:00:27.579Z,99.20
2018-07-16T07:05:11.919Z,98.60
2018-07-16T07:09:56.272Z,98.70
2018-07-16T07:14:40.649Z,96.70
2018-07-16T07:19:25.127Z,95.80
2018-07-16T07:24:09.394Z,94.60
2018-07-16T07:28:53.703Z,94.10
2018-07-16T07:33:38.082Z,92.80
2018-07-16T07:38:22.454Z,92.60
2018-07-16T07:43:06.972Z,91.10
2018-07-16T07:47:51.355Z,89.40
2018-07-16T07:52:35.782Z,85.40
2018-07-16T07:57:20.237Z,83.20
2018-07-16T08:02:04.705Z,81.70
2018-07-16T08:06:54.333Z,79.30
2018-07-16T08:11:38.691Z,78.80
2018-07-16T08:16:23.074Z,76.80
2018-07-16T08:21:07.640Z,73.50
2018-07-16T08:25:51.970Z,72.80
2018-07-16T08:30:36.422Z,71.70
2018-07-16T08:35:20.761Z,70.10
2018-07-16T08:40:05.975Z,69.90
2018-07-16T08:44:50.385Z,66.70
2018-07-16T08:49:34.754Z,66.30
2018-07-16T08:54:19.232Z,62.90
2018-07-16T08:59:04.002Z,62.80
2018-07-16T09:03:48.331Z,60.60
2018-07-16T09:08:33.665Z,60.00
2018-07-16T09:13:18.100Z,59.00
2018-07-16T09:18:02.469Z,58.80
2018-07-16T09:22:46.869Z,57.30
2018-07-16T09:27:31.331Z,58.40
2018-07-16T09:32:15.727Z,59.30
2018-07-16T09:37:00.178Z,59.20
2018-07-16T09:41:45.353Z,59.10
2018-07-16T09:46:29.842Z,57.70
2018-07-16T09:51:14.246Z,58.80
2018-07-16T09:55:58.654Z,58.50
2018-07-16T10:00:48.058Z,58.70
2018-07-16T10:05:32.488Z,59.80
2018-07-16T10:10:16.941Z,57.50
2018-07-16T10:15:01.372Z,57.30
2018-07-16T10:19:45.877Z,56.20
2018-07-16T10:24:30.635Z,55.70
2018-07-16T10:29:14.962Z,54.50
2018-07-16T10:33:59.400Z,52.10
2018-07-16T10:38:43.738Z,52.50
2018-07-16T10:43:28.165Z,53.00
2018-07-16T10:48:12.493Z,52.40
2018-07-16T10:52:56.894Z,52.20
2018-07-16T10:57:41.373Z,51.50
2018-07-16T11:02:25.845Z,50.10
2018-07-16T11:07:10.245Z,51.70
2018-07-16T11:11:54.687Z,51.30
2018-07-16T11:16:39.231Z,50.90
2018-07-16T11:21:23.686Z,49.60
2018-07-16T11:26:08.188Z,50.00
2018-07-16T11:30:53.107Z,50.10
2018-07-16T11:35:37.504Z,50.10
2018-07-16T11:40:21.866Z,48.50
2018-07-16T11:45:06.307Z,48.20
2018-07-16T11:49:50.906Z,49.90
2018-07-16T11:54:35.293Z,48.60
2018-07-16T11:59:19.661Z,47.80
2018-07-16T12:04:03.939Z,46.60
2018-07-16T12:08:48.314Z,48.70
2018-07-16T12:13:32.627Z,46.80
2018-07-16T12:18:16.949Z,46.20
2018-07-16T12:23:01.427Z,45.30
2018-07-16T12:27:45.940Z,44.90
2018-07-16T12:32:30.366Z,46.30
2018-07-16T12:37:14.734Z,44.90
2018-07-16T12:41:59.365Z,44.10
2018-07-16T12:46:43.764Z,42.60
2018-07-16T12:51:28.172Z,44.20
2018-07-16T12:56:12.614Z,43.60
2018-07-16T13:00:57.021Z,43.40
2018-07-16T13:05:41.454Z,45.50
2018-07-16T13:10:25.835Z,44.40
2018-07-16T13:15:10.285Z,45.00
2018-07-16T13:19:54.654Z,43.50
2018-07-16T13:24:38.964Z,45.20
2018-07-16T13:29:23.354Z,44.80
2018-07-16T13:34:07.757Z,44.50
2018-07-16T13:38:52.215Z,42.70
2018-07-16T13:43:36.526Z,45.90
2018-07-16T13:48:21.129Z,42.90
2018-07-16T13:53:05.854Z,43.70
2018-07-16T13:57:50.211Z,41.40
2018-07-16T14:02:34.582Z,42.30
2018-07-16T14:07:18.890Z,42.30
2018-07-16T14:12:03.394Z,43.20
2018-07-16T14:16:47.787Z,43.30
2018-07-16T14:21:32.201Z,41.70
2018-07-16T14:26:16.572Z,42.30
2018-07-16T14:31:00.968Z,42.40
2018-07-16T14:35:45.282Z,40.00
2018-07-16T14:40:29.648Z,40.50
2018-07-16T14:45:13.934Z,41.70
2018-07-16T14:49:58.326Z,43.20
2018-07-16T14:54:42.640Z,40.50
2018-07-16T14:59:27.059Z,41.40
2018-07-16T15:04:11.511Z,39.80
2018-07-16T15:08:56.017Z,40.00
2018-07-16T15:13:40.370Z,40.60
2018-07-16T15:18:24.997Z,41.70
2018-07-16T15:23:09.337Z,40.70
2018-07-16T15:27:53.858Z,41.30
2018-07-16T15:32:38.297Z,41.20
2018-07-16T15:37:22.656Z,43.00
2018-07-16T15:42:07.031Z,43.50
2018-07-16T15:46:51.586Z,42.10
2018-07-16T15:51:36.008Z,43.00
2018-07-16T15:56:20.591Z,40.60
2018-07-16T16:01:04.923Z,39.50
2018-07-16T16:05:49.428Z,40.30
2018-07-16T16:10:33.971Z,40.40
2018-07-16T16:15:18.711Z,37.20
2018-07-16T16:20:03.060Z,38.30
2018-07-16T16:24:47.449Z,37.50
2018-07-16T16:29:31.810Z,38.00
2018-07-16T16:34:16.282Z,36.50
2018-07-16T16:39:00.706Z,36.50
2018-07-16T16:43:45.402Z,37.40
2018-07-16T16:48:29.777Z,36.10
2018-07-16T16:53:14.174Z,36.20
2018-07-16T16:57:58.562Z,37.00
2018-07-16T17:02:42.964Z,37.30
2018-07-16T17:07:27.445Z,37.60
2018-07-16T17:12:11.839Z,40.00
2018-07-16T17:16:56.312Z,40.30
2018-07-16T17:21:41.549Z,40.60
2018-07-16T17:26:25.900Z,41.90
2018-07-16T17:31:10.283Z,42.10
2018-07-16T17:35:55.060Z,41.10
2018-07-16T17:40:39.403Z,40.80
2018-07-16T17:45:23.953Z,43.00
2018-07-16T17:50:08.393Z,44.60
2018-07-16T17:54:52.938Z,46.60
2018-07-16T17:59:37.325Z,47.40
2018-07-16T18:04:21.838Z,48.70
2018-07-16T18:09:07.581Z,51.00
2018-07-16T18:13:52.029Z,50.40
2018-07-16T18:18:36.595Z,52.60
2018-07-16T18:23:21.025Z,52.50
2018-07-16T18:28:05.414Z,55.70
2018-07-16T18:32:49.816Z,55.80
2018-07-16T18:37:34.267Z,56.40
2018-07-16T18:42:18.658Z,57.50
2018-07-16T18:47:02.992Z,58.70
2018-07-16T18:51:47.506Z,59.80
2018-07-16T18:56:31.903Z,61.80
2018-07-16T19:01:16.320Z,62.30
2018-07-16T19:06:00.692Z,62.20
2018-07-16T19:10:45.079Z,64.50
2018-07-16T19:15:29.699Z,65.40
2018-07-16T19:20:14.109Z,67.30
2018-07-16T19:24:58.590Z,67.20
2018-07-16T19:29:43.247Z,70.50
2018-07-16T19:34:27.664Z,73.20
2018-07-16T19:39:12.563Z,69.90
2018-07-16T19:43:56.976Z,69.90
2018-07-16T19:48:41.548Z,70.90
2018-07-16T19:53:26.043Z,72.80
2018-07-16T19:58:10.471Z,72.20
2018-07-16T20:02:54.895Z,74.80
2018-07-16T20:07:39.581Z,75.30
2018-07-16T20:12:30.997Z,75.20
2018-07-16T20:17:15.536Z,77.70
2018-07-16T20:21:59.950Z,78.10
2018-07-16T20:26:44.578Z,76.40
2018-07-16T20:31:29.006Z,78.70
2018-07-16T20:36:13.583Z,79.30
2018-07-16T20:40:58.106Z,80.50
2018-07-16T20:45:43.025Z,81.70
2018-07-16T20:50:28.103Z,83.30
2018-07-16T20:55:12.748Z,83.70
2018-07-16T20:59:57.451Z,86.60
2018-07-16T21:04:42.098Z,86.20
2018-07-16T21:09:26.747Z,89.00
2018-07-16T21:14:11.165Z,90.80
2018-07-16T21:18:55.554Z,92.20
2018-07-16T21:23:39.915Z,92.40
2018-07-16T21:28:24.302Z,94.20
2018-07-16T21:33:08.789Z,95.00
2018-07-16T21:37:53.191Z,95.30
2018-07-16T21:42:37.676Z,95.30
2018-07-16T21:47:22.128Z,96.00
2018-07-16T21:52:06.757Z,96.10
2018-07-16T21:56:51.382Z,97.30
2018-07-16T22:01:35.758Z,97.30
2018-07-16T22:06:20.195Z,97.10
2018-07-16T22:11:04.697Z,95.70
2018-07-16T22:15:49.052Z,95.00
2018-07-16T22:20:33.399Z,94.80
2018-07-16T22:25:17.914Z,95.50
2018-07-16T22:30:02.264Z,97.10
2018-07-16T22:34:46.639Z,97.70
2018-07-16T22:39:31.151Z,96.70
2018-07-16T22:44:15.530Z,96.10
2018-07-16T22:48:59.882Z,95.90
2018-07-16T22:53:44.253Z,97.50
2018-07-16T22:58:28.578Z,98.90
2018-07-16T23:03:12.913Z,99.90
2018-07-16T23:07:57.317Z,99.90
2018-07-16T23:12:41.566Z,99.90
2018-07-16T23:17:26.065Z,99.90
2018-07-16T23:22:10.449Z,99.90
2018-07-16T23:26:54.748Z,99.90
2018-07-16T23:31:39.171Z,99.90
2018-07-16T23:36:23.560Z,99.90
2018-07-16T23:41:08.129Z,99.90
2018-07-16T23:45:52.486Z,99.90
2018-07-16T23:50:36.769Z,99.90
2018-07-16T23:55:21.077Z,99.90
